Grange Hall, Texas
Current Conditions -  °F | °C
As of 5:55 AM on Monday 24 Nov 2014 (Local Time) from KASL Reporting Station
Clear Clear  
Wind Chill: 48°   Ceiling: Unl
Heat Index: 48°   Visibility: 10mi
Dew Point: 40°   Wind: 3mph
Humidity: 74%   Direction: 290°WNW
Pressure: 29.92"   Gusts: NA
Location:  32.4675°N, 94.3321°W
Report Text: KASL 241155Z AUTO 29003KT 10SM CLR 09/05 A2992 RMK AO1 70017 T00900046 10133 20090
Loading
Personal Weather Stations






























Interactive Weather Map New forecast layout! Learn more

10-Day Weather Forecast

Advertisements
Track Severe Weather on mobile